KOSU/OSU METAR and TAF weather

Enter ICAO airport designator
Station Type Date Time Source
KOSU METAR 2020/09/22 03:53 UTC NOAA

KOSU 220353Z AUTO 00000KT 10SM CLR 11/06 A3033 RMK AO2 SLP269 T01110061


Station Type Date Time Source
KOSU Decoded METAR 2020/09/22 03:53 UTC NOAA

OHIO STATE UNIVERSITY AIRPORT , OH, United States (KOSU) 40-05N 083-05W 280M
Sep 21, 2020 - 11:53 PM EDT / 2020.09.22 0353 UTC
Wind: Calm:0
Visibility: 10 mile(s):0
Sky conditions: clear
Temperature: 52.0 F (11.1 C)
Dew Point: 43.0 F (6.1 C)
Relative Humidity: 71%
Pressure (altimeter): 30.33 in. Hg (1027 hPa)
ob: KOSU 220353Z AUTO 00000KT 10SM CLR 11/06 A3033 RMK AO2 SLP269 T01110061
cycle: 4

Station Type Date Time Source
KOSU TAF UTC NOAA

Error!

Example: see airport list